Time,TemperatureF,DewpointF,PressureIn,WindDirection,WindDirectionDegrees,WindSpeedMPH,WindSpeedGustMPH,Humidity,HourlyPrecipIn,Conditions,Clouds,dailyrainin,SoftwareType,DateUTC
2013-04-11 00:03:00,35.8,24.1,29.88,NE,53,2.0,10.0,62,0.00,,,0.00,VWS V14.01,2013-04-11 05:03:00,
2013-04-11 00:12:00,35.8,24.1,29.88,NE,34,1.0,9.0,62,0.00,,,0.00,VWS V14.01,2013-04-11 05:12:00,
2013-04-11 00:22:00,35.6,23.5,29.87,NE,48,2.0,6.0,61,0.00,,,0.00,VWS V14.01,2013-04-11 05:22:00,
2013-04-11 00:27:00,35.6,23.5,29.87,NNE,26,4.0,8.0,61,0.00,,,0.00,VWS V14.01,2013-04-11 05:27:00,
2013-04-11 00:32:00,35.6,23.5,29.87,NE,56,6.0,11.0,61,0.00,,,0.00,VWS V14.01,2013-04-11 05:32:00,
2013-04-11 00:42:00,35.8,23.7,29.87,East,80,9.0,12.0,61,0.00,,,0.00,VWS V14.01,2013-04-11 05:42:00,
2013-04-11 00:47:00,35.8,23.3,29.85,NE,51,9.0,14.0,60,0.00,,,0.00,VWS V14.01,2013-04-11 05:47:00,
2013-04-11 00:52:00,35.8,23.3,29.85,NE,36,4.0,14.0,60,0.00,,,0.00,VWS V14.01,2013-04-11 05:52:00,
2013-04-11 00:57:00,35.8,23.3,29.85,NE,47,4.0,11.0,60,0.00,,,0.00,VWS V14.01,2013-04-11 05:57:00,
2013-04-11 01:07:00,35.6,23.1,29.85,East,79,11.0,15.0,60,0.00,,,0.00,VWS V14.01,2013-04-11 06:07:00,
2013-04-11 01:12:00,35.5,23.4,29.85,NE,49,5.0,13.0,61,0.00,,,0.00,VWS V14.01,2013-04-11 06:12:00,
2013-04-11 01:22:00,35.6,23.1,29.84,ENE,60,0.0,12.0,60,0.00,,,0.00,VWS V14.01,2013-04-11 06:22:00,
2013-04-11 01:27:00,35.8,23.3,29.84,ENE,67,4.0,10.0,60,0.00,,,0.00,VWS V14.01,2013-04-11 06:27:00,
2013-04-11 01:32:00,35.8,22.9,29.84,ENE,76,9.0,14.0,59,0.00,,,0.00,VWS V14.01,2013-04-11 06:32:00,
2013-04-11 01:37:00,35.8,22.9,29.84,NE,51,4.0,14.0,59,0.00,,,0.00,VWS V14.01,2013-04-11 06:37:00,
2013-04-11 01:42:00,35.8,23.3,29.84,NE,55,7.0,11.0,60,0.00,,,0.00,VWS V14.01,2013-04-11 06:42:00,
2013-04-11 01:47:00,35.8,22.9,29.82,ENE,67,6.0,14.0,59,0.00,,,0.00,VWS V14.01,2013-04-11 06:47:00,
2013-04-11 01:57:00,35.8,23.3,29.82,NE,41,10.0,12.0,60,0.00,,,0.00,VWS V14.01,2013-04-11 06:57:00,
2013-04-11 02:02:00,35.6,23.1,29.82,ENE,65,4.0,11.0,60,0.00,,-RA,0.00,VWS V14.01,2013-04-11 07:02:00,
2013-04-11 02:12:00,35.6,23.1,29.82,East,83,7.0,14.0,60,0.00,,-RA,0.00,VWS V14.01,2013-04-11 07:12:00,
2013-04-11 02:22:00,35.5,23.4,29.81,ENE,66,6.0,13.0,61,0.00,,-RA,0.00,VWS V14.01,2013-04-11 07:22:00,
2013-04-11 02:27:00,35.3,23.2,29.81,ENE,65,11.0,15.0,61,0.00,,-RA,0.00,VWS V14.01,2013-04-11 07:27:00,
2013-04-11 02:32:00,35.3,23.2,29.79,ENE,62,5.0,14.0,61,0.00,,-RA,0.00,VWS V14.01,2013-04-11 07:32:00,
2013-04-11 02:37:00,35.3,23.2,29.79,ENE,67,3.0,15.0,61,0.00,,-RA,0.00,VWS V14.01,2013-04-11 07:37:00,
2013-04-11 02:42:00,35.3,22.8,29.79,ENE,78,11.0,17.0,60,0.00,,-RA,0.00,VWS V14.01,2013-04-11 07:42:00,
2013-04-11 02:47:00,35.5,22.2,29.77,NE,36,9.0,15.0,58,0.00,,-RA,0.00,VWS V14.01,2013-04-11 07:47:00,
2013-04-11 02:52:00,35.8,21.6,29.77,East,84,6.0,16.0,56,0.00,,-RA,0.00,VWS V14.01,2013-04-11 07:52:00,
2013-04-11 02:57:00,35.9,20.9,29.77,NE,53,2.0,24.0,54,0.00,,-RA,0.00,VWS V14.01,2013-04-11 07:57:00,
2013-04-11 03:03:00,35.9,20.9,29.77,ENE,74,11.0,15.0,54,0.00,,OVC039,0.00,VWS V14.01,2013-04-11 08:03:00,
2013-04-11 03:12:00,36.0,20.1,29.77,East,85,7.0,16.0,52,0.00,,OVC039,0.00,VWS V14.01,2013-04-11 08:12:00,
2013-04-11 03:22:00,36.0,19.6,29.77,NE,56,5.0,14.0,51,0.00,,OVC039,0.00,VWS V14.01,2013-04-11 08:22:00,
2013-04-11 03:32:00,35.6,19.7,29.77,ENE,59,5.0,17.0,52,0.00,,OVC039,0.00,VWS V14.01,2013-04-11 08:32:00,
2013-04-11 03:42:00,35.3,19.9,29.77,NNE,32,10.0,19.0,53,0.00,,OVC039,0.00,VWS V14.01,2013-04-11 08:42:00,
2013-04-11 03:47:00,34.9,21.6,29.77,NE,54,4.0,15.0,58,0.00,,OVC039,0.00,VWS V14.01,2013-04-11 08:47:00,
2013-04-11 03:52:00,34.0,21.6,29.77,ENE,74,5.0,17.0,60,0.00,,OVC039,0.00,VWS V14.01,2013-04-11 08:52:00,
2013-04-11 03:57:00,33.7,22.1,29.77,ENE,66,7.0,12.0,62,0.00,,OVC039,0.00,VWS V14.01,2013-04-11 08:57:00,
2013-04-11 04:07:00,33.1,22.6,29.77,ENE,74,4.0,14.0,65,0.00,,,0.00,VWS V14.01,2013-04-11 09:07:00,
2013-04-11 04:12:00,32.9,22.4,29.77,NE,51,3.0,14.0,65,0.00,,,0.00,VWS V14.01,2013-04-11 09:12:00,
2013-04-11 04:17:00,32.8,22.7,29.76,ENE,65,9.0,16.0,66,0.00,,,0.00,VWS V14.01,2013-04-11 09:17:00,
2013-04-11 04:22:00,32.7,23.0,29.76,East,86,9.0,11.0,67,0.00,,,0.00,VWS V14.01,2013-04-11 09:22:00,
2013-04-11 04:27:00,32.7,23.0,29.76,ENE,69,3.0,18.0,67,0.00,,,0.00,VWS V14.01,2013-04-11 09:27:00,
2013-04-11 04:32:00,32.8,22.7,29.75,ESE,117,4.0,12.0,66,0.00,,,0.00,VWS V14.01,2013-04-11 09:32:00,
2013-04-11 04:37:00,33.1,22.3,29.75,NE,38,6.0,14.0,64,0.00,,,0.00,VWS V14.01,2013-04-11 09:37:00,
2013-04-11 04:47:00,33.4,22.5,29.73,ENE,71,3.0,17.0,64,0.00,,,0.00,VWS V14.01,2013-04-11 09:47:00,
2013-04-11 04:52:00,33.4,22.9,29.73,NE,46,5.0,15.0,65,0.00,,,0.00,VWS V14.01,2013-04-11 09:52:00,
2013-04-11 04:57:00,33.1,23.0,29.73,ENE,78,5.0,15.0,66,0.00,,,0.00,VWS V14.01,2013-04-11 09:57:00,
2013-04-11 05:07:00,32.9,23.2,29.72,ENE,76,3.0,21.0,67,0.00,,-RA,0.00,VWS V14.01,2013-04-11 10:07:00,
2013-04-11 05:17:00,32.8,23.4,29.72,ENE,71,2.0,13.0,68,0.00,,-RA,0.00,VWS V14.01,2013-04-11 10:17:00,
2013-04-11 05:22:00,32.7,23.7,29.72,ENE,72,12.0,13.0,69,0.00,,-RA,0.00,VWS V14.01,2013-04-11 10:22:00,
2013-04-11 05:32:00,32.5,23.8,29.73,ENE,66,4.0,11.0,70,0.00,,-RA,0.00,VWS V14.01,2013-04-11 10:32:00,
2013-04-11 05:42:00,32.4,24.4,29.73,ENE,61,4.0,7.0,72,0.00,,-RA,0.00,VWS V14.01,2013-04-11 10:42:00,
2013-04-11 05:47:00,32.2,24.5,29.75,ENE,57,0.0,10.0,73,0.00,,-RA,0.00,VWS V14.01,2013-04-11 10:47:00,
2013-04-11 05:52:00,32.2,24.9,29.75,ENE,59,0.0,0.0,74,0.00,,-RA,0.00,VWS V14.01,2013-04-11 10:52:00,
2013-04-11 05:57:00,32.1,25.1,29.75,East,86,4.0,4.0,75,0.00,,-RA,0.00,VWS V14.01,2013-04-11 10:57:00,
2013-04-11 06:02:00,32.1,25.4,29.77,ENE,72,0.0,5.0,76,0.00,,,0.00,VWS V14.01,2013-04-11 11:02:00,
2013-04-11 06:12:00,31.8,25.7,29.77,ENE,72,0.0,0.0,78,0.00,,,0.00,VWS V14.01,2013-04-11 11:12:00,
2013-04-11 06:17:00,31.6,25.9,29.79,ENE,72,0.0,0.0,79,0.00,,,0.00,VWS V14.01,2013-04-11 11:17:00,
2013-04-11 06:23:00,31.6,26.1,29.79,ENE,72,0.0,0.0,80,0.00,,,0.00,VWS V14.01,2013-04-11 11:23:00,
2013-04-11 06:32:00,31.2,26.4,29.79,ENE,72,0.0,0.0,82,0.00,,,0.00,VWS V14.01,2013-04-11 11:32:00,
2013-04-11 06:42:00,30.7,26.5,29.79,ENE,71,0.0,3.0,84,0.00,,,0.00,VWS V14.01,2013-04-11 11:42:00,
2013-04-11 06:47:00,30.6,26.6,29.77,NE,51,4.0,4.0,85,0.00,,,0.00,VWS V14.01,2013-04-11 11:47:00,
2013-04-11 06:52:00,30.4,26.7,29.77,NE,55,3.0,5.0,86,0.00,,,0.00,VWS V14.01,2013-04-11 11:52:00,
2013-04-11 07:02:00,30.1,26.7,29.76,ENE,64,3.0,5.0,87,0.00,,,0.00,VWS V14.01,2013-04-11 12:02:00,
2013-04-11 07:07:00,30.1,27.0,29.76,NE,54,2.0,5.0,88,0.00,,,0.00,VWS V14.01,2013-04-11 12:07:00,
2013-04-11 07:12:00,30.0,26.9,29.76,NE,56,0.0,4.0,88,0.00,,,0.00,VWS V14.01,2013-04-11 12:12:00,
2013-04-11 07:17:00,30.0,26.9,29.77,ENE,69,2.0,7.0,88,0.00,,,0.00,VWS V14.01,2013-04-11 12:17:00,
2013-04-11 07:22:00,30.0,27.2,29.77,ENE,58,0.0,3.0,89,0.00,,,0.00,VWS V14.01,2013-04-11 12:22:00,
2013-04-11 07:28:00,29.8,27.0,29.77,NE,47,3.0,5.0,89,0.00,,,0.00,VWS V14.01,2013-04-11 12:28:00,
2013-04-11 07:37:00,29.8,27.0,29.76,ENE,59,0.0,5.0,89,0.00,,,0.00,VWS V14.01,2013-04-11 12:37:00,
2013-04-11 07:42:00,29.8,27.0,29.76,ENE,66,3.0,6.0,89,0.00,,,0.00,VWS V14.01,2013-04-11 12:42:00,
2013-04-11 07:47:00,29.7,27.1,29.75,ENE,59,6.0,7.0,90,0.00,,,0.00,VWS V14.01,2013-04-11 12:47:00,
2013-04-11 07:52:00,29.7,27.1,29.75,ENE,57,2.0,9.0,90,0.00,,,0.00,VWS V14.01,2013-04-11 12:52:00,
2013-04-11 08:02:00,29.5,26.9,29.74,ENE,64,3.0,9.0,90,0.00,,,0.00,VWS V14.01,2013-04-11 13:02:00,
2013-04-11 08:07:00,29.5,26.9,29.74,NE,51,6.0,8.0,90,0.00,,,0.00,VWS V14.01,2013-04-11 13:07:00,
2013-04-11 08:12:00,29.5,26.9,29.74,ENE,63,3.0,11.0,90,0.00,,,0.00,VWS V14.01,2013-04-11 13:12:00,
2013-04-11 08:17:00,29.5,27.2,29.75,ENE,61,2.0,11.0,91,0.00,,,0.00,VWS V14.01,2013-04-11 13:17:00,
2013-04-11 08:22:00,29.7,27.4,29.75,ENE,61,5.0,11.0,91,0.00,,,0.00,VWS V14.01,2013-04-11 13:22:00,
2013-04-11 08:27:00,29.7,27.4,29.75,ENE,67,7.0,10.0,91,0.00,,,0.00,VWS V14.01,2013-04-11 13:27:00,
2013-04-11 08:32:00,29.7,27.4,29.73,NE,37,4.0,14.0,91,0.00,,,0.00,VWS V14.01,2013-04-11 13:32:00,
2013-04-11 08:37:00,29.8,27.5,29.73,ENE,71,5.0,11.0,91,0.00,,,0.00,VWS V14.01,2013-04-11 13:37:00,
2013-04-11 08:42:00,29.8,27.5,29.73,ENE,66,7.0,7.0,91,0.00,,,0.00,VWS V14.01,2013-04-11 13:42:00,
2013-04-11 08:47:00,30.0,27.7,29.73,NNE,27,6.0,12.0,91,0.00,,,0.00,VWS V14.01,2013-04-11 13:47:00,
2013-04-11 08:53:00,30.0,27.7,29.73,East,84,4.0,14.0,91,0.00,,,0.00,VWS V14.01,2013-04-11 13:53:00,
2013-04-11 09:03:00,30.0,28.0,29.73,ENE,76,3.0,12.0,92,0.00,,,0.00,VWS V14.01,2013-04-11 14:03:00,
2013-04-11 09:12:00,30.0,28.0,29.73,NE,54,4.0,10.0,92,0.00,,,0.00,VWS V14.01,2013-04-11 14:12:00,
2013-04-11 09:17:00,30.1,28.1,29.73,ENE,62,1.0,11.0,92,0.00,,,0.00,VWS V14.01,2013-04-11 14:17:00,
2013-04-11 09:22:00,30.3,28.3,29.73,ENE,77,5.0,11.0,92,0.00,,,0.00,VWS V14.01,2013-04-11 14:22:00,
2013-04-11 09:27:00,30.4,28.4,29.73,NE,53,2.0,11.0,92,0.00,,,0.00,VWS V14.01,2013-04-11 14:27:00,
2013-04-11 09:32:00,30.6,28.6,29.72,ENE,59,9.0,15.0,92,0.00,,,0.00,VWS V14.01,2013-04-11 14:32:00,
2013-04-11 09:37:00,30.6,28.6,29.72,NE,44,2.0,15.0,92,0.00,,,0.00,VWS V14.01,2013-04-11 14:37:00,
2013-04-11 09:42:00,30.9,28.9,29.72,NE,44,3.0,10.0,92,0.00,,,0.00,VWS V14.01,2013-04-11 14:42:00,
2013-04-11 09:47:00,31.0,29.0,29.71,ENE,72,6.0,13.0,92,0.00,,,0.00,VWS V14.01,2013-04-11 14:47:00,
2013-04-11 09:52:00,31.2,29.1,29.71,ENE,65,6.0,13.0,92,0.00,,,0.00,VWS V14.01,2013-04-11 14:52:00,
2013-04-11 09:57:00,31.3,29.2,29.71,ENE,61,4.0,15.0,92,0.00,,,0.00,VWS V14.01,2013-04-11 14:57:00,
2013-04-11 10:02:00,31.3,29.2,29.71,ENE,72,7.0,14.0,92,0.00,,,0.00,VWS V14.01,2013-04-11 15:02:00,
2013-04-11 10:07:00,31.3,29.2,29.71,ENE,67,4.0,15.0,92,0.00,,,0.00,VWS V14.01,2013-04-11 15:07:00,
2013-04-11 10:12:00,31.5,29.5,29.71,NNE,28,9.0,13.0,92,0.00,,,0.00,VWS V14.01,2013-04-11 15:12:00,
2013-04-11 10:17:00,31.5,29.5,29.72,East,88,6.0,12.0,92,0.00,,,0.00,VWS V14.01,2013-04-11 15:17:00,
2013-04-11 10:22:00,31.6,29.5,29.72,ENE,69,5.0,15.0,92,0.00,,,0.00,VWS V14.01,2013-04-11 15:22:00,
2013-04-11 10:32:00,31.8,29.8,29.72,East,91,6.0,13.0,92,0.00,,,0.00,VWS V14.01,2013-04-11 15:32:00,
2013-04-11 10:37:00,31.9,29.8,29.72,ENE,74,9.0,17.0,92,0.00,,,0.00,VWS V14.01,2013-04-11 15:37:00,
2013-04-11 10:42:00,31.9,29.8,29.72,East,82,5.0,14.0,92,0.00,,,0.00,VWS V14.01,2013-04-11 15:42:00,
2013-04-11 10:47:00,32.1,30.0,29.71,East,88,6.0,17.0,92,0.00,,,0.00,VWS V14.01,2013-04-11 15:47:00,
2013-04-11 11:13:00,32.5,30.4,29.71,ENE,68,8.0,18.0,92,0.00,,,0.00,VWS V14.01,2013-04-11 16:13:00,
2013-04-11 11:23:00,33.1,30.8,29.72,East,84,6.0,13.0,91,0.00,,,0.00,VWS V14.01,2013-04-11 16:23:00,
2013-04-11 11:32:00,33.1,30.5,29.71,ENE,61,5.0,16.0,90,0.00,,,0.00,VWS V14.01,2013-04-11 16:32:00,
2013-04-11 11:38:00,33.2,30.6,29.71,ENE,75,10.0,16.0,90,0.01,,,0.01,VWS V14.01,2013-04-11 16:38:00,
2013-04-11 11:48:00,33.4,30.5,29.72,East,86,11.0,16.0,89,0.01,,,0.01,VWS V14.01,2013-04-11 16:48:00,
2013-04-11 11:57:00,33.4,30.5,29.72,NE,54,9.0,14.0,89,0.01,,,0.01,VWS V14.01,2013-04-11 16:57:00,
2013-04-11 12:03:00,33.5,30.6,29.72,ENE,76,6.0,12.0,89,0.02,,,0.02,VWS V14.01,2013-04-11 17:03:00,
2013-04-11 12:08:00,33.5,30.6,29.72,East,88,11.0,16.0,89,0.02,,,0.02,VWS V14.01,2013-04-11 17:08:00,
2013-04-11 12:13:00,33.4,30.5,29.72,East,80,7.0,13.0,89,0.02,,,0.02,VWS V14.01,2013-04-11 17:13:00,
2013-04-11 12:22:00,33.5,30.6,29.71,East,79,9.0,13.0,89,0.03,,,0.03,VWS V14.01,2013-04-11 17:22:00,
2013-04-11 12:28:00,33.4,30.5,29.71,East,80,10.0,15.0,89,0.04,,,0.04,VWS V14.01,2013-04-11 17:28:00,
2013-04-11 12:33:00,33.5,30.6,29.71,ENE,57,5.0,13.0,89,0.04,,,0.04,VWS V14.01,2013-04-11 17:33:00,
2013-04-11 12:38:00,33.7,30.8,29.71,ENE,58,10.0,15.0,89,0.04,,,0.04,VWS V14.01,2013-04-11 17:38:00,
2013-04-11 12:47:00,33.5,30.3,29.70,ENE,61,4.0,14.0,88,0.05,,,0.06,VWS V14.01,2013-04-11 17:47:00,
2013-04-11 12:53:00,33.7,30.8,29.70,East,94,10.0,11.0,89,0.05,,,0.06,VWS V14.01,2013-04-11 17:53:00,
2013-04-11 13:03:00,33.8,30.6,29.69,ENE,73,11.0,14.0,88,0.06,,,0.07,VWS V14.01,2013-04-11 18:03:00,
2013-04-11 13:12:00,34.0,30.8,29.69,NE,48,5.0,13.0,88,0.06,,,0.08,VWS V14.01,2013-04-11 18:12:00,
2013-04-11 13:18:00,34.1,30.6,29.68,East,82,2.0,11.0,87,0.07,,,0.09,VWS V14.01,2013-04-11 18:18:00,
2013-04-11 13:28:00,34.1,30.6,29.68,ENE,78,3.0,13.0,87,0.07,,,0.10,VWS V14.01,2013-04-11 18:28:00,
2013-04-11 13:37:00,34.1,30.4,29.68,East,91,6.0,14.0,86,0.07,,,0.11,VWS V14.01,2013-04-11 18:37:00,
2013-04-11 13:42:00,34.1,30.4,29.68,NE,47,11.0,12.0,86,0.07,,,0.11,VWS V14.01,2013-04-11 18:42:00,
2013-04-11 13:48:00,34.3,30.6,29.66,ENE,66,5.0,16.0,86,0.07,,,0.12,VWS V14.01,2013-04-11 18:48:00,
2013-04-11 13:58:00,34.4,30.1,29.66,NE,51,5.0,16.0,84,0.07,,,0.13,VWS V14.01,2013-04-11 18:58:00,
2013-04-11 14:07:00,34.7,30.1,29.66,ENE,76,12.0,14.0,83,0.07,,OVC016,0.14,VWS V14.01,2013-04-11 19:07:00,
2013-04-11 14:13:00,34.9,30.0,29.66,ENE,57,5.0,13.0,82,0.06,,OVC016,0.14,VWS V14.01,2013-04-11 19:13:00,
2013-04-11 14:18:00,34.9,29.7,29.65,NE,51,7.0,19.0,81,0.06,,OVC016,0.14,VWS V14.01,2013-04-11 19:18:00,
2013-04-11 14:27:00,35.2,29.7,29.65,ENE,72,2.0,16.0,80,0.06,,OVC016,0.15,VWS V14.01,2013-04-11 19:27:00,
2013-04-11 14:33:00,35.3,29.8,29.66,ENE,77,9.0,16.0,80,0.05,,OVC016,0.15,VWS V14.01,2013-04-11 19:33:00,
2013-04-11 14:38:00,35.3,29.8,29.66,NE,47,15.0,15.0,80,0.06,,OVC016,0.16,VWS V14.01,2013-04-11 19:38:00,
2013-04-11 14:48:00,35.2,29.7,29.67,ENE,70,3.0,12.0,80,0.05,,OVC016,0.16,VWS V14.01,2013-04-11 19:48:00,
2013-04-11 14:53:00,35.2,29.7,29.67,ENE,74,6.0,12.0,80,0.05,,OVC016,0.17,VWS V14.01,2013-04-11 19:53:00,
2013-04-11 14:58:00,35.2,30.0,29.67,NE,44,6.0,13.0,81,0.05,,OVC016,0.17,VWS V14.01,2013-04-11 19:58:00,
2013-04-11 15:08:00,35.0,30.1,29.66,East,82,2.0,14.0,82,0.05,,OVC018,0.18,VWS V14.01,2013-04-11 20:08:00,
2013-04-11 15:17:00,35.0,30.1,29.67,ENE,62,5.0,14.0,82,0.04,,OVC018,0.18,VWS V14.01,2013-04-11 20:17:00,
2013-04-11 15:23:00,35.2,30.3,29.67,East,91,7.0,14.0,82,0.05,,OVC018,0.19,VWS V14.01,2013-04-11 20:23:00,
2013-04-11 15:33:00,34.9,30.3,29.67,ENE,71,5.0,14.0,83,0.04,,OVC018,0.19,VWS V14.01,2013-04-11 20:33:00,
2013-04-11 15:42:00,34.7,30.4,29.67,ENE,68,0.0,15.0,84,0.04,,OVC018,0.20,VWS V14.01,2013-04-11 20:42:00,
2013-04-11 15:48:00,34.6,30.3,29.67,East,86,6.0,15.0,84,0.04,,,0.20,VWS V14.01,2013-04-11 20:48:00,
2013-04-11 15:53:00,34.6,30.6,29.67,NE,54,2.0,12.0,85,0.05,,,0.21,VWS V14.01,2013-04-11 20:53:00,
2013-04-11 15:58:00,34.4,30.4,29.67,ENE,69,7.0,14.0,85,0.04,,,0.21,VWS V14.01,2013-04-11 20:58:00,
2013-04-11 16:08:00,34.4,30.6,29.67,ENE,65,1.0,13.0,86,0.05,,-RA,0.22,VWS V14.01,2013-04-11 21:08:00,
2013-04-11 16:13:00,34.4,30.6,29.67,ENE,57,9.0,12.0,86,0.04,,-RA,0.22,VWS V14.01,2013-04-11 21:13:00,
2013-04-11 16:18:00,34.3,30.8,29.67,ENE,57,9.0,13.0,87,0.04,,-RA,0.22,VWS V14.01,2013-04-11 21:18:00,
2013-04-11 16:23:00,34.3,30.8,29.67,East,80,5.0,14.0,87,0.05,,-RA,0.23,VWS V14.01,2013-04-11 21:23:00,
2013-04-11 16:28:00,34.3,30.8,29.67,ENE,57,1.0,12.0,87,0.04,,-RA,0.23,VWS V14.01,2013-04-11 21:28:00,
2013-04-11 16:38:00,34.3,31.1,29.67,NE,53,3.0,10.0,88,0.05,,,0.24,VWS V14.01,2013-04-11 21:38:00,
2013-04-11 16:43:00,34.1,30.9,29.67,ENE,65,5.0,11.0,88,0.04,,,0.24,VWS V14.01,2013-04-11 21:43:00,
2013-04-11 16:48:00,34.1,30.9,29.67,ENE,75,4.0,12.0,88,0.04,,,0.24,VWS V14.01,2013-04-11 21:48:00,
2013-04-11 16:53:00,34.3,31.1,29.67,ENE,60,5.0,9.0,88,0.04,,,0.24,VWS V14.01,2013-04-11 21:53:00,
2013-04-11 17:03:00,34.1,31.2,29.67,East,86,0.0,12.0,89,0.03,,,0.24,VWS V14.01,2013-04-11 22:03:00,
2013-04-11 17:13:00,33.8,30.9,29.67,NE,42,6.0,17.0,89,0.03,,,0.25,VWS V14.01,2013-04-11 22:13:00,
2013-04-11 17:18:00,33.8,30.9,29.67,ENE,76,8.0,15.0,89,0.03,,,0.25,VWS V14.01,2013-04-11 22:18:00,
2013-04-11 17:23:00,33.8,30.9,29.67,East,79,3.0,12.0,89,0.04,,,0.26,VWS V14.01,2013-04-11 22:23:00,
2013-04-11 17:28:00,33.7,30.5,29.67,ENE,59,5.0,15.0,88,0.03,,,0.26,VWS V14.01,2013-04-11 22:28:00,
2013-04-11 17:38:00,33.7,30.8,29.67,NE,47,3.0,12.0,89,0.02,,,0.26,VWS V14.01,2013-04-11 22:38:00,
2013-04-11 17:48:00,33.7,30.8,29.67,East,79,3.0,10.0,89,0.03,,,0.27,VWS V14.01,2013-04-11 22:48:00,
2013-04-11 17:53:00,33.7,30.8,29.67,NE,42,4.0,7.0,89,0.03,,,0.27,VWS V14.01,2013-04-11 22:53:00,
2013-04-11 17:58:00,33.7,30.8,29.67,NE,52,2.0,13.0,89,0.03,,,0.27,VWS V14.01,2013-04-11 22:58:00,
2013-04-11 18:03:00,33.7,30.8,29.67,ENE,68,6.0,10.0,89,0.03,,,0.27,VWS V14.01,2013-04-11 23:03:00,
2013-04-11 18:08:00,33.5,30.6,29.67,ENE,57,2.0,11.0,89,0.04,,,0.28,VWS V14.01,2013-04-11 23:08:00,
2013-04-11 18:13:00,33.5,30.6,29.67,NE,49,5.0,9.0,89,0.04,,,0.28,VWS V14.01,2013-04-11 23:13:00,
2013-04-11 18:18:00,33.4,30.8,29.67,ENE,63,6.0,7.0,90,0.03,,,0.28,VWS V14.01,2013-04-11 23:18:00,
2013-04-11 18:23:00,33.4,30.8,29.67,ENE,61,3.0,7.0,90,0.03,,,0.28,VWS V14.01,2013-04-11 23:23:00,
2013-04-11 18:28:00,33.4,30.8,29.67,NE,55,3.0,9.0,90,0.02,,,0.28,VWS V14.01,2013-04-11 23:28:00,
2013-04-11 18:33:00,33.2,30.6,29.67,ENE,57,4.0,10.0,90,0.02,,,0.28,VWS V14.01,2013-04-11 23:33:00,
2013-04-11 18:42:00,33.1,30.5,29.67,NE,51,5.0,9.0,90,0.02,,,0.28,VWS V14.01,2013-04-11 23:42:00,
2013-04-11 18:48:00,33.1,30.5,29.67,NE,47,4.0,6.0,90,0.02,,,0.28,VWS V14.01,2013-04-11 23:48:00,
2013-04-11 18:53:00,33.1,30.8,29.67,NE,53,3.0,13.0,91,0.01,,,0.28,VWS V14.01,2013-04-11 23:53:00,
2013-04-11 19:03:00,32.9,30.6,29.67,ENE,67,3.0,7.0,91,0.01,,,0.28,VWS V14.01,2013-04-12 00:03:00,
2013-04-11 19:08:00,32.9,30.6,29.67,NE,51,4.0,9.0,91,0.01,,,0.28,VWS V14.01,2013-04-12 00:08:00,
2013-04-11 19:13:00,32.9,30.6,29.67,ENE,66,3.0,9.0,91,0.00,,,0.28,VWS V14.01,2013-04-12 00:13:00,
2013-04-11 19:18:00,32.9,30.6,29.67,ENE,67,0.0,6.0,91,0.01,,,0.29,VWS V14.01,2013-04-12 00:18:00,
2013-04-11 19:23:00,32.9,30.6,29.67,ENE,57,0.0,5.0,91,0.01,,,0.29,VWS V14.01,2013-04-12 00:23:00,
2013-04-11 19:28:00,32.8,30.5,29.67,ENE,58,4.0,8.0,91,0.01,,,0.29,VWS V14.01,2013-04-12 00:28:00,
2013-04-11 19:33:00,32.8,30.5,29.66,ENE,57,6.0,9.0,91,0.01,,,0.29,VWS V14.01,2013-04-12 00:33:00,
2013-04-11 19:43:00,32.7,30.6,29.66,East,84,5.0,12.0,92,0.01,,,0.29,VWS V14.01,2013-04-12 00:43:00,
2013-04-11 19:48:00,32.5,30.4,29.66,ENE,60,1.0,9.0,92,0.01,,,0.29,VWS V14.01,2013-04-12 00:48:00,
2013-04-11 19:53:00,32.5,30.4,29.66,NE,34,3.0,9.0,92,0.01,,,0.29,VWS V14.01,2013-04-12 00:53:00,
2013-04-11 19:58:00,32.5,30.4,29.66,NE,54,0.0,9.0,92,0.01,,,0.29,VWS V14.01,2013-04-12 00:58:00,
2013-04-11 20:03:00,32.5,30.4,29.66,NE,43,2.0,9.0,92,0.01,,,0.29,VWS V14.01,2013-04-12 01:03:00,
2013-04-11 20:13:00,32.5,30.4,29.66,NE,54,2.0,10.0,92,0.01,,,0.29,VWS V14.01,2013-04-12 01:13:00,
2013-04-11 20:18:00,32.5,30.4,29.66,ENE,59,4.0,7.0,92,0.01,,,0.29,VWS V14.01,2013-04-12 01:18:00,
2013-04-11 20:28:00,32.5,30.4,29.66,NE,52,9.0,10.0,92,0.00,,,0.29,VWS V14.01,2013-04-12 01:28:00,
2013-04-11 20:33:00,32.5,30.4,29.66,NE,52,4.0,10.0,92,0.00,,,0.29,VWS V14.01,2013-04-12 01:33:00,
2013-04-11 20:38:00,32.5,30.4,29.66,NE,46,7.0,12.0,92,0.00,,,0.29,VWS V14.01,2013-04-12 01:38:00,
2013-04-11 20:43:00,32.4,30.3,29.66,East,88,2.0,13.0,92,0.00,,,0.29,VWS V14.01,2013-04-12 01:43:00,
2013-04-11 20:48:00,32.4,30.3,29.66,ENE,67,11.0,12.0,92,0.00,,,0.29,VWS V14.01,2013-04-12 01:48:00,
2013-04-11 20:53:00,32.4,30.3,29.66,ENE,66,4.0,14.0,92,0.00,,,0.29,VWS V14.01,2013-04-12 01:53:00,
2013-04-11 20:58:00,32.4,30.3,29.66,ENE,61,2.0,6.0,92,0.00,,,0.29,VWS V14.01,2013-04-12 01:58:00,
2013-04-11 21:03:00,32.4,30.3,29.67,NNE,30,1.0,11.0,92,0.00,,,0.29,VWS V14.01,2013-04-12 02:03:00,
2013-04-11 21:08:00,32.2,30.1,29.67,ENE,67,5.0,15.0,92,0.00,,,0.29,VWS V14.01,2013-04-12 02:08:00,
2013-04-11 21:18:00,31.9,29.8,29.67,East,88,6.0,11.0,92,0.00,,,0.29,VWS V14.01,2013-04-12 02:18:00,
2013-04-11 21:23:00,31.9,29.8,29.67,ENE,71,3.0,9.0,92,0.00,,,0.29,VWS V14.01,2013-04-12 02:23:00,
2013-04-11 21:28:00,31.8,29.8,29.67,NE,49,9.0,13.0,92,0.00,,,0.29,VWS V14.01,2013-04-12 02:28:00,
2013-04-11 21:33:00,31.8,29.8,29.67,NE,50,6.0,11.0,92,0.00,,,0.29,VWS V14.01,2013-04-12 02:33:00,
2013-04-11 21:38:00,31.6,29.5,29.67,ENE,60,10.0,15.0,92,0.00,,,0.29,VWS V14.01,2013-04-12 02:38:00,
2013-04-11 21:43:00,31.5,29.5,29.67,ENE,75,5.0,13.0,92,0.00,,,0.29,VWS V14.01,2013-04-12 02:43:00,
2013-04-11 21:48:00,31.5,29.5,29.67,ENE,71,7.0,18.0,92,0.00,,,0.29,VWS V14.01,2013-04-12 02:48:00,
2013-04-11 21:53:00,31.3,29.2,29.67,ENE,69,3.0,11.0,92,0.00,,,0.29,VWS V14.01,2013-04-12 02:53:00,
2013-04-11 21:58:00,31.3,29.2,29.67,NE,40,4.0,12.0,92,0.00,,,0.29,VWS V14.01,2013-04-12 02:58:00,
2013-04-11 22:03:00,31.3,29.2,29.67,ENE,68,2.0,13.0,92,0.00,,,0.29,VWS V14.01,2013-04-12 03:03:00,
2013-04-11 22:13:00,31.3,29.2,29.67,ENE,59,3.0,9.0,92,0.00,,,0.29,VWS V14.01,2013-04-12 03:13:00,
2013-04-11 22:18:00,31.3,29.2,29.67,NE,46,3.0,4.0,92,0.00,,,0.29,VWS V14.01,2013-04-12 03:18:00,
2013-04-11 22:23:00,31.3,29.2,29.67,NE,56,2.0,6.0,92,0.00,,,0.29,VWS V14.01,2013-04-12 03:23:00,
2013-04-11 22:28:00,31.3,29.2,29.67,NE,54,4.0,11.0,92,0.00,,,0.29,VWS V14.01,2013-04-12 03:28:00,
2013-04-11 22:33:00,31.3,29.2,29.67,ENE,67,3.0,7.0,92,0.00,,,0.29,VWS V14.01,2013-04-12 03:33:00,
2013-04-11 22:38:00,31.3,29.2,29.67,ENE,67,3.0,11.0,92,0.00,,,0.29,VWS V14.01,2013-04-12 03:38:00,
2013-04-11 22:48:00,31.2,29.1,29.67,NE,41,6.0,11.0,92,0.00,,,0.29,VWS V14.01,2013-04-12 03:48:00,
2013-04-11 22:58:00,30.9,28.9,29.67,NE,55,2.0,10.0,92,0.00,,,0.29,VWS V14.01,2013-04-12 03:58:00,
2013-04-11 23:03:00,30.7,28.7,29.67,ENE,63,3.0,9.0,92,0.00,,,0.29,VWS V14.01,2013-04-12 04:03:00,
2013-04-11 23:08:00,30.7,28.7,29.67,ENE,67,5.0,10.0,92,0.00,,,0.29,VWS V14.01,2013-04-12 04:08:00,
2013-04-11 23:12:00,30.7,28.7,29.67,ENE,60,0.0,6.0,92,0.00,,,0.29,VWS V14.01,2013-04-12 04:12:00,
2013-04-11 23:18:00,30.6,28.6,29.67,ENE,63,7.0,11.0,92,0.00,,,0.29,VWS V14.01,2013-04-12 04:18:00,
2013-04-11 23:23:00,30.4,28.1,29.67,ENE,57,3.0,12.0,91,0.00,,,0.29,VWS V14.01,2013-04-12 04:23:00,
2013-04-11 23:28:00,30.4,28.1,29.67,ENE,66,5.0,12.0,91,0.01,,,0.30,VWS V14.01,2013-04-12 04:28:00,
2013-04-11 23:33:00,30.3,28.0,29.67,NE,42,5.0,7.0,91,0.01,,,0.30,VWS V14.01,2013-04-12 04:33:00,
2013-04-11 23:38:00,30.3,28.0,29.67,NE,48,0.0,10.0,91,0.01,,,0.30,VWS V14.01,2013-04-12 04:38:00,
2013-04-11 23:43:00,30.3,28.0,29.67,NE,37,3.0,5.0,91,0.01,,,0.30,VWS V14.01,2013-04-12 04:43:00,
2013-04-11 23:48:00,30.3,28.0,29.67,NE,49,4.0,7.0,91,0.01,,,0.30,VWS V14.01,2013-04-12 04:48:00,
2013-04-11 23:52:00,30.3,28.0,29.67,NE,47,3.0,10.0,91,0.01,,,0.30,VWS V14.01,2013-04-12 04:52:00,
2013-04-11 23:58:00,30.3,28.0,29.67,NE,49,0.0,6.0,91,0.01,,,0.30,VWS V14.01,2013-04-12 04:58:00,